Time;durP1;ratioP1;P1;durP2;ratioP2;P2;SDS_P1;SDS_P2;PMS_P1;PMS_P2;Temp;Humidity;BMP_temperature;BMP_pressure;BME280_temperature;BME280_humidity;BME280_pressure;Samples;Min_cycle;Max_cycle;Signal;HPM_P1;HPM_P2
2021/03/29 00:00:32;;;;;;;12.00;4.75;;;8.60;99.90;;;;;;5028037;28;20037;-88
2021/03/29 00:03:00;;;;;;;9.48;4.30;;;8.60;99.90;;;;;;5021041;28;20041;-87
2021/03/29 00:05:29;;;;;;;7.20;4.25;;;8.50;99.90;;;;;;5048281;28;20032;-88
2021/03/29 00:08:32;;;;;;;7.25;3.75;;;8.50;99.90;;;;;;5026981;28;20068;-88
2021/03/29 00:11:01;;;;;;;10.93;5.30;;;8.50;99.90;;;;;;5014747;28;20101;-88
2021/03/29 00:13:30;;;;;;;8.32;4.13;;;8.40;99.90;;;;;;5047495;28;20033;-88
2021/03/29 00:15:58;;;;;;;8.07;4.43;;;8.50;99.90;;;;;;5042235;28;20151;-88
2021/03/29 00:18:24;;;;;;;9.50;4.43;;;8.40;99.90;;;;;;5038978;28;20432;-88
2021/03/29 00:21:06;;;;;;;9.38;4.53;;;8.40;99.90;;;;;;5066896;28;20037;-89
2021/03/29 00:23:32;;;;;;;8.73;4.20;;;8.40;99.90;;;;;;5016097;28;20152;-88
2021/03/29 00:25:59;;;;;;;7.40;4.03;;;8.40;99.90;;;;;;5051551;28;20021;-88
2021/03/29 00:28:24;;;;;;;8.75;4.65;;;8.40;99.90;;;;;;5031669;28;20029;-88
2021/03/29 00:30:51;;;;;;;8.57;3.92;;;8.40;99.90;;;;;;5050456;28;20031;-88
2021/03/29 00:33:19;;;;;;;9.35;4.15;;;8.40;99.90;;;;;;5065516;28;20029;-88
2021/03/29 00:35:48;;;;;;;12.10;4.38;;;8.40;99.90;;;;;;5040278;28;20020;-88
2021/03/29 00:38:16;;;;;;;8.52;3.70;;;8.40;99.90;;;;;;5039494;28;20358;-88
2021/03/29 00:40:49;;;;;;;9.13;3.92;;;8.30;99.90;;;;;;5048043;28;20035;-88
2021/03/29 00:43:22;;;;;;;15.55;5.28;;;8.30;99.90;;;;;;5020112;28;20032;-89
2021/03/29 00:45:49;;;;;;;;;;;8.30;99.90;;;;;;5043944;28;20029;-89
2021/03/29 00:48:19;;;;;;;8.30;3.53;;;8.20;99.90;;;;;;5062178;28;19970;-89
2021/03/29 00:51:15;;;;;;;10.45;4.45;;;8.20;99.90;;;;;;5051448;28;20032;-90
2021/03/29 00:53:47;;;;;;;8.38;3.60;;;8.20;99.90;;;;;;5023154;28;20122;-89
2021/03/29 00:56:14;;;;;;;8.65;3.53;;;8.20;99.90;;;;;;5040163;28;20583;-89
2021/03/29 00:58:42;;;;;;;12.10;4.00;;;8.20;99.90;;;;;;5031908;28;20052;-89
2021/03/29 01:01:46;;;;;;;11.73;3.75;;;8.10;99.90;;;;;;5031279;28;20064;-89
2021/03/29 01:04:12;;;;;;;10.90;4.78;;;8.20;99.90;;;;;;5004491;28;20037;-89
2021/03/29 01:06:47;;;;;;;11.35;4.63;;;8.20;99.90;;;;;;5038059;28;20045;-89
2021/03/29 01:09:24;;;;;;;12.90;5.18;;;8.30;99.90;;;;;;5046295;28;20111;-89
2021/03/29 01:11:59;;;;;;;12.05;4.88;;;8.30;99.90;;;;;;5042670;28;20063;-87
2021/03/29 01:14:36;;;;;;;10.43;4.13;;;8.40;99.90;;;;;;5048315;28;20105;-89
2021/03/29 01:17:24;;;;;;;11.32;4.65;;;8.40;99.90;;;;;;5028049;28;20045;-88
2021/03/29 01:19:53;;;;;;;11.48;4.85;;;8.50;99.90;;;;;;5040320;28;20032;-90
2021/03/29 01:22:25;;;;;;;11.65;4.50;;;8.50;99.90;;;;;;5040242;28;20124;-89
2021/03/29 01:25:09;;;;;;;12.15;5.45;;;8.50;99.90;;;;;;5053680;28;20541;-88
2021/03/29 01:27:43;;;;;;;12.85;5.35;;;8.50;99.90;;;;;;5039159;28;20041;-90
2021/03/29 01:30:10;;;;;;;11.77;5.25;;;8.50;99.90;;;;;;5039206;28;20091;-89
2021/03/29 01:32:39;;;;;;;13.90;5.43;;;8.50;99.90;;;;;;5039302;28;20511;-90
2021/03/29 01:35:31;;;;;;;18.00;5.18;;;8.50;99.90;;;;;;5057633;28;20052;-89
2021/03/29 01:37:58;;;;;;;13.68;5.95;;;8.50;99.90;;;;;;5039112;28;20025;-90
2021/03/29 01:40:25;;;;;;;12.02;5.88;;;8.60;99.90;;;;;;5022830;28;20095;-91
2021/03/29 01:42:51;;;;;;;14.32;5.88;;;8.60;99.90;;;;;;5023455;28;20037;-90
2021/03/29 01:45:21;;;;;;;9.73;4.85;;;8.70;99.90;;;;;;5063189;28;20070;-91
2021/03/29 01:47:47;;;;;;;16.27;6.35;;;8.70;99.90;;;;;;5045482;28;20087;-89
2021/03/29 01:50:22;;;;;;;14.75;5.68;;;8.80;99.90;;;;;;5050820;28;20033;-89
2021/03/29 01:52:49;;;;;;;12.95;5.20;;;8.90;99.90;;;;;;5057385;28;20033;-89
2021/03/29 01:55:17;;;;;;;16.00;5.53;;;8.90;99.90;;;;;;5055685;28;20087;-89
2021/03/29 01:57:43;;;;;;;18.10;5.70;;;9.00;99.90;;;;;;5056472;28;20140;-90
2021/03/29 02:00:16;;;;;;;12.95;5.38;;;9.00;99.90;;;;;;5057414;28;20072;-89
2021/03/29 02:02:43;;;;;;;15.27;4.83;;;9.10;99.90;;;;;;5023350;28;20067;-89
2021/03/29 02:05:13;;;;;;;14.40;5.22;;;9.10;99.90;;;;;;5039505;28;20033;-90
2021/03/29 02:07:40;;;;;;;14.38;5.60;;;9.20;99.90;;;;;;5039498;28;20068;-88
2021/03/29 02:10:16;;;;;;;14.57;4.47;;;9.10;99.90;;;;;;5039320;28;20472;-88
2021/03/29 02:12:43;;;;;;;13.38;5.32;;;9.20;99.90;;;;;;5038519;28;20060;-88
2021/03/29 02:15:11;;;;;;;12.88;4.50;;;9.10;99.90;;;;;;5021260;28;20469;-89
2021/03/29 02:17:38;;;;;;;11.60;4.55;;;9.20;99.90;;;;;;5037504;28;20037;-88
2021/03/29 02:20:15;;;;;;;13.05;5.35;;;9.20;99.90;;;;;;5037433;28;20515;-88
2021/03/29 02:22:48;;;;;;;12.63;5.65;;;9.20;99.90;;;;;;5037653;28;20037;-89
2021/03/29 02:25:16;;;;;;;13.55;5.63;;;9.20;99.90;;;;;;5037614;28;20029;-88
2021/03/29 02:27:42;;;;;;;14.52;4.78;;;9.20;99.90;;;;;;5037629;28;20068;-89
2021/03/29 02:30:11;;;;;;;14.35;4.75;;;9.20;99.90;;;;;;5039092;28;20040;-89
2021/03/29 02:32:44;;;;;;;13.13;5.13;;;9.20;99.90;;;;;;5039225;28;20037;-90
2021/03/29 02:35:13;;;;;;;9.82;5.00;;;9.20;99.90;;;;;;5023135;28;20029;-89
2021/03/29 02:37:44;;;;;;;12.07;5.25;;;9.10;99.90;;;;;;5056779;28;20516;-89
2021/03/29 02:40:10;;;;;;;15.10;5.60;;;9.10;99.90;;;;;;5038981;28;20088;-89
2021/03/29 02:42:37;;;;;;;14.43;5.38;;;9.10;99.90;;;;;;5038960;28;20096;-89
2021/03/29 02:45:08;;;;;;;9.38;4.32;;;9.10;99.90;;;;;;5039136;28;20033;-90
2021/03/29 02:47:37;;;;;;;11.77;4.75;;;9.00;99.90;;;;;;5055962;28;20037;-89
2021/03/29 02:50:09;;;;;;;9.63;4.72;;;9.00;99.90;;;;;;5022210;28;20052;-89
2021/03/29 02:52:36;;;;;;;10.07;4.35;;;9.00;99.90;;;;;;5038793;28;20028;-89
2021/03/29 02:55:07;;;;;;;9.63;5.03;;;8.90;99.90;;;;;;5056532;28;20037;-88
2021/03/29 02:57:36;;;;;;;11.05;4.82;;;8.90;99.90;;;;;;5021856;28;20097;-89
2021/03/29 03:00:15;;;;;;;11.82;4.82;;;8.80;99.90;;;;;;5021925;28;20068;-88
2021/03/29 03:02:43;;;;;;;11.63;5.20;;;8.80;99.90;;;;;;5022794;28;20055;-89
2021/03/29 03:05:10;;;;;;;13.20;4.70;;;8.70;99.90;;;;;;5038382;28;20066;-88
2021/03/29 03:07:37;;;;;;;11.73;5.18;;;8.70;99.90;;;;;;5038468;28;20049;-89
2021/03/29 03:10:11;;;;;;;15.50;5.38;;;8.70;99.90;;;;;;5038423;28;20424;-88
2021/03/29 03:12:41;;;;;;;13.57;5.88;;;8.60;99.90;;;;;;5038422;28;20033;-88
2021/03/29 03:15:10;;;;;;;16.58;6.53;;;8.60;99.90;;;;;;5022179;28;20044;-89
2021/03/29 03:17:37;;;;;;;15.65;6.93;;;8.60;99.90;;;;;;5021627;28;20404;-88
2021/03/29 03:20:08;;;;;;;14.68;6.30;;;8.60;99.90;;;;;;5038213;28;20032;-88
2021/03/29 03:22:34;;;;;;;17.02;7.57;;;8.50;99.90;;;;;;5038277;28;20029;-88
2021/03/29 03:25:00;;;;;;;17.33;7.85;;;8.50;99.90;;;;;;5055924;28;20036;-88
2021/03/29 03:27:26;;;;;;;16.48;7.97;;;8.50;99.90;;;;;;5038029;28;20512;-88
2021/03/29 03:29:52;;;;;;;18.17;9.13;;;8.40;99.90;;;;;;5020985;28;20033;-88
2021/03/29 03:32:18;;;;;;;15.73;8.60;;;8.50;99.90;;;;;;5037928;28;20040;-89
2021/03/29 03:34:44;;;;;;;18.98;8.23;;;8.50;99.90;;;;;;5055906;28;20037;-89
2021/03/29 03:37:20;;;;;;;18.50;9.45;;;8.40;99.90;;;;;;5037953;28;20033;-89
2021/03/29 03:39:48;;;;;;;18.88;10.70;;;8.40;99.90;;;;;;5038105;28;20362;-87
2021/03/29 03:42:17;;;;;;;20.23;9.15;;;8.40;99.90;;;;;;5037634;28;20106;-88
2021/03/29 03:44:47;;;;;;;19.63;8.63;;;8.40;99.90;;;;;;5037998;28;20132;-88
2021/03/29 03:47:13;;;;;;;20.48;9.13;;;8.40;99.90;;;;;;5020669;28;20049;-89
2021/03/29 03:49:39;;;;;;;16.40;8.23;;;8.40;99.90;;;;;;5037156;28;20087;-88
2021/03/29 03:52:08;;;;;;;18.33;8.80;;;8.50;99.90;;;;;;5037153;28;20420;-88
2021/03/29 03:54:34;;;;;;;13.68;7.45;;;8.40;99.90;;;;;;5055357;28;20029;-89
2021/03/29 03:57:01;;;;;;;15.65;7.60;;;8.50;99.90;;;;;;5037088;28;20048;-90
2021/03/29 03:59:30;;;;;;;15.07;7.88;;;8.40;99.90;;;;;;5037325;28;20033;-89
2021/03/29 04:02:03;;;;;;;17.10;7.53;;;8.40;99.90;;;;;;5021234;28;20033;-90
2021/03/29 04:04:31;;;;;;;14.88;7.50;;;8.50;99.90;;;;;;5037505;28;20553;-89
2021/03/29 04:06:58;;;;;;;12.40;6.82;;;8.40;99.90;;;;;;5037132;28;20395;-89
2021/03/29 04:09:38;;;;;;;13.65;6.65;;;8.50;99.90;;;;;;5037079;28;20052;-89
2021/03/29 04:12:11;;;;;;;14.20;6.38;;;8.50;99.90;;;;;;5051973;28;20029;-88
2021/03/29 04:14:39;;;;;;;14.38;6.78;;;8.50;99.90;;;;;;5020777;28;20128;-88
2021/03/29 04:17:08;;;;;;;13.65;5.55;;;8.50;99.90;;;;;;5037023;28;20029;-88
2021/03/29 04:19:35;;;;;;;11.80;5.20;;;8.60;99.90;;;;;;5036472;28;20029;-88
2021/03/29 04:22:01;;;;;;;13.80;7.10;;;8.60;99.90;;;;;;5020280;28;20469;-88
2021/03/29 04:24:27;;;;;;;12.70;5.40;;;8.60;99.90;;;;;;5036851;28;20033;-89
2021/03/29 04:26:53;;;;;;;14.18;5.55;;;8.60;99.90;;;;;;5020229;28;20052;-88
2021/03/29 04:29:19;;;;;;;10.13;4.57;;;8.70;99.90;;;;;;5036299;28;20392;-89
2021/03/29 04:31:45;;;;;;;11.02;4.97;;;8.70;99.90;;;;;;5003854;28;20168;-88
2021/03/29 04:34:11;;;;;;;12.55;4.65;;;8.60;99.90;;;;;;5036162;28;20029;-88
2021/03/29 04:36:37;;;;;;;10.07;4.25;;;8.70;99.90;;;;;;5036531;28;20592;-88
2021/03/29 04:39:06;;;;;;;11.30;4.65;;;8.70;99.90;;;;;;5036516;28;20086;-88
2021/03/29 04:41:32;;;;;;;9.32;4.38;;;8.70;99.90;;;;;;5054390;28;20037;-88
2021/03/29 04:43:58;;;;;;;13.02;4.75;;;8.80;99.90;;;;;;5036368;28;20086;-88
2021/03/29 04:46:25;;;;;;;11.98;5.28;;;8.80;99.90;;;;;;5036063;28;20033;-88
2021/03/29 04:48:51;;;;;;;9.32;4.18;;;8.80;99.90;;;;;;5053927;28;20477;-88
2021/03/29 04:51:17;;;;;;;15.25;4.50;;;8.90;99.90;;;;;;5036301;28;20037;-88
2021/03/29 04:53:46;;;;;;;11.65;4.15;;;8.90;99.90;;;;;;5003605;28;20477;-87
2021/03/29 04:56:12;;;;;;;9.88;4.07;;;8.90;99.90;;;;;;5053752;28;20056;-89
2021/03/29 04:58:40;;;;;;;7.22;3.70;;;8.90;99.90;;;;;;5036248;28;20041;-90
2021/03/29 05:01:07;;;;;;;9.48;3.67;;;8.90;99.90;;;;;;5035370;28;20466;-88
2021/03/29 05:03:32;;;;;;;9.73;3.67;;;8.90;99.90;;;;;;5019689;28;20440;-88
2021/03/29 05:05:58;;;;;;;13.93;4.30;;;8.80;99.90;;;;;;5036096;28;20090;-89
2021/03/29 05:08:26;;;;;;;11.20;3.97;;;8.80;99.90;;;;;;5036121;28;20048;-88
2021/03/29 05:10:52;;;;;;;11.55;4.45;;;8.80;99.90;;;;;;5036101;28;20045;-88
2021/03/29 05:13:17;;;;;;;12.57;4.20;;;8.80;99.90;;;;;;5019408;28;20469;-88
2021/03/29 05:15:44;;;;;;;8.48;3.38;;;8.80;99.90;;;;;;5053701;28;20529;-88
2021/03/29 05:18:12;;;;;;;7.22;3.60;;;8.80;99.90;;;;;;5035468;28;20129;-88
2021/03/29 05:20:40;;;;;;;13.13;4.80;;;8.70;99.90;;;;;;5018949;28;20087;-88
2021/03/29 05:23:05;;;;;;;7.65;3.80;;;8.70;99.90;;;;;;5035265;28;20041;-88
2021/03/29 05:25:31;;;;;;;11.88;4.75;;;8.70;99.90;;;;;;5035844;28;20530;-87
2021/03/29 05:28:01;;;;;;;12.27;3.88;;;8.60;99.90;;;;;;5035760;28;20080;-87
2021/03/29 05:30:27;;;;;;;11.60;4.07;;;8.70;99.90;;;;;;5052706;28;20481;-87
2021/03/29 05:32:53;;;;;;;8.93;3.55;;;8.60;99.90;;;;;;5019510;28;20071;-87
2021/03/29 05:35:20;;;;;;;8.90;4.25;;;8.60;99.90;;;;;;5019213;28;20041;-89
2021/03/29 05:37:45;;;;;;;11.38;4.07;;;8.60;99.90;;;;;;5035681;28;20037;-89
2021/03/29 05:40:16;;;;;;;9.65;4.00;;;8.60;99.90;;;;;;5035733;28;20179;-89
2021/03/29 05:42:45;;;;;;;9.90;4.50;;;8.70;99.90;;;;;;5053691;28;20071;-88
2021/03/29 05:45:20;;;;;;;6.13;3.05;;;8.70;99.90;;;;;;5035799;28;20037;-89
2021/03/29 05:47:46;;;;;;;9.23;3.38;;;8.70;99.90;;;;;;5034980;28;20102;-89
2021/03/29 05:50:16;;;;;;;8.88;3.40;;;8.70;99.90;;;;;;5053059;28;20505;-88
2021/03/29 05:52:43;;;;;;;12.10;4.20;;;8.80;99.90;;;;;;5019461;28;20061;-88
2021/03/29 05:55:18;;;;;;;11.90;4.28;;;8.80;99.90;;;;;;5018927;28;20132;-89
2021/03/29 06:00:47;;;;;;;9.90;3.42;;;8.90;99.90;;;;;;5053480;28;20033;-89
2021/03/29 06:03:46;;;;;;;11.13;4.07;;;9.00;99.90;;;;;;5053513;28;20433;-89
2021/03/29 06:06:20;;;;;;;13.13;4.07;;;9.00;99.90;;;;;;5057398;28;20036;-90
2021/03/29 06:08:53;;;;;;;14.73;3.65;;;9.10;99.90;;;;;;5041304;28;20048;-90
2021/03/29 06:11:34;;;;;;;9.65;3.80;;;9.10;99.90;;;;;;5029949;28;20108;-90
2021/03/29 06:14:30;;;;;;;9.80;3.58;;;9.10;99.90;;;;;;5043530;28;20036;-89
2021/03/29 06:17:28;;;;;;;10.10;3.90;;;9.10;99.90;;;;;;5027544;28;20039;-89
2021/03/29 06:20:10;;;;;;;8.40;3.85;;;9.20;99.90;;;;;;5051217;28;20060;-90
2021/03/29 06:22:48;;;;;;;;;;;;;;;;;;;;;
2021/03/29 06:25:38;;;;;;;9.63;4.10;;;9.10;99.90;;;;;;5063536;28;20031;-89
2021/03/29 06:28:35;;;;;;;13.27;3.50;;;9.10;99.90;;;;;;5045124;28;20449;-90
2021/03/29 06:31:19;;;;;;;12.50;3.78;;;9.20;99.90;;;;;;5029142;28;20047;-89
2021/03/29 06:33:59;;;;;;;13.55;4.72;;;9.20;99.90;;;;;;5047561;28;20053;-90
2021/03/29 06:37:11;;;;;;;11.48;4.50;;;9.20;99.90;;;;;;5072842;28;20033;-90
2021/03/29 06:39:52;;;;;;;11.40;3.55;;;9.20;99.90;;;;;;5055752;28;20033;-90
2021/03/29 06:42:39;;;;;;;10.65;3.60;;;9.30;99.90;;;;;;5042927;28;20033;-90
2021/03/29 06:45:20;;;;;;;10.02;3.72;;;9.30;99.90;;;;;;5019041;28;20067;-90
2021/03/29 06:48:42;;;;;;;13.80;4.53;;;9.40;99.90;;;;;;5046965;28;20194;-89
2021/03/29 06:51:35;;;;;;;11.20;3.67;;;9.40;99.90;;;;;;5022681;28;20055;-90
2021/03/29 06:54:44;;;;;;;12.55;4.28;;;9.40;99.90;;;;;;5031712;28;20207;-90
2021/03/29 06:57:26;;;;;;;10.25;4.50;;;9.40;99.90;;;;;;5063603;28;20476;-90
2021/03/29 07:00:07;;;;;;;;;;;;;;;;;;;;;
2021/03/29 07:03:40;;;;;;;;;;;;;;;;;;;;;
2021/03/29 07:09:57;;;;;;;10.95;4.47;;;9.60;99.90;;;;;;5047684;28;20045;-90
2021/03/29 07:19:49;;;;;;;13.00;4.07;;;9.70;99.90;;;;;;4963011;28;20039;-90
2021/03/29 07:23:32;;;;;;;;;;;;;;;;;;;;;
2021/03/29 07:30:05;;;;;;;;;;;;;;;;;;;;;
2021/03/29 07:33:23;;;;;;;;;;;;;;;;;;;;;
2021/03/29 07:36:50;;;;;;;;;;;;;;;;;;;;;
2021/03/29 07:46:31;;;;;;;;;;;;;;;;;;;;;
2021/03/29 07:52:51;;;;;;;9.57;3.92;;;10.50;99.90;;;;;;4880582;28;20605;-90
2021/03/29 07:56:07;;;;;;;;;;;;;;;;;;;;;
2021/03/29 07:59:08;;;;;;;10.90;4.03;;;10.70;99.90;;;;;;5030875;28;20052;-91
2021/03/29 08:02:33;;;;;;;10.65;3.90;;;10.80;99.90;;;;;;5024540;28;20037;-90
2021/03/29 08:05:37;;;;;;;8.88;3.83;;;10.90;99.90;;;;;;4968168;28;20522;-91
2021/03/29 08:08:38;;;;;;;9.15;4.15;;;11.00;99.90;;;;;;4994724;28;20044;-91
2021/03/29 08:11:50;;;;;;;;;;;;;;;;;;;;;
2021/03/29 08:18:11;;;;;;;;;;;;;;;;;;;;;
2021/03/29 08:21:28;;;;;;;12.55;4.45;;;11.30;99.90;;;;;;4859506;29;20046;-89
2021/03/29 08:24:36;;;;;;;9.43;3.85;;;11.40;99.90;;;;;;4854855;29;20037;-90
2021/03/29 08:28:14;;;;;;;13.07;4.25;;;11.40;99.90;;;;;;4890311;29;20139;-89
2021/03/29 08:34:28;;;;;;;13.48;4.15;;;11.60;99.90;;;;;;4921583;29;20286;-91
2021/03/29 08:37:38;;;;;;;10.10;4.00;;;11.70;99.90;;;;;;4894624;29;20044;-90
2021/03/29 08:47:42;;;;;;;;;;;;;;;;;;;;;
2021/03/29 08:51:06;;;;;;;9.93;3.97;;;12.00;99.90;;;;;;4962845;28;20038;-89
2021/03/29 09:05:16;;;;;;;;;;;;;;;;;;;;;
2021/03/29 09:08:27;;;;;;;12.73;3.90;;;12.60;99.90;;;;;;4948222;29;20062;-90
2021/03/29 09:11:49;;;;;;;12.80;4.38;;;12.70;99.60;;;;;;4933090;29;20055;-90
2021/03/29 09:14:49;;;;;;;9.20;4.05;;;12.80;99.80;;;;;;4909104;29;20569;-91
2021/03/29 09:17:48;;;;;;;9.38;4.00;;;13.00;99.40;;;;;;4893692;29;20048;-91
2021/03/29 09:21:16;;;;;;;;;;;;;;;;;;;;;
2021/03/29 09:32:14;;;;;;;;;;;;;;;;;;;;;
2021/03/29 09:35:12;;;;;;;11.07;3.80;;;13.70;96.90;;;;;;5027766;28;20033;-91
2021/03/29 09:38:11;;;;;;;8.85;3.30;;;13.70;95.80;;;;;;5013506;28;20045;-91
2021/03/29 09:41:48;;;;;;;;;;;;;;;;;;;;;
2021/03/29 09:44:17;;;;;;;10.07;3.30;;;13.90;95.90;;;;;;5034696;28;20067;-91
2021/03/29 09:47:29;;;;;;;7.30;3.10;;;14.10;94.90;;;;;;5010078;28;20433;-92
2021/03/29 09:50:31;;;;;;;9.20;3.22;;;14.80;95.40;;;;;;5051937;28;20036;-92
2021/03/29 09:53:19;;;;;;;9.38;3.45;;;16.40;92.00;;;;;;5052311;28;20511;-92
2021/03/29 09:58:49;;;;;;;9.77;3.05;;;18.20;88.20;;;;;;5026253;28;20053;-92
2021/03/29 10:05:20;;;;;;;10.32;3.30;;;19.10;82.10;;;;;;5029151;28;20037;-92
2021/03/29 10:11:22;;;;;;;8.35;3.25;;;19.90;77.10;;;;;;5024548;28;20087;-90
2021/03/29 10:14:18;;;;;;;;;;;;;;;;;;;;;
2021/03/29 10:17:36;;;;;;;;;;;;;;;;;;;;;
2021/03/29 10:20:54;;;;;;;7.00;3.05;;;20.40;73.40;;;;;;5043862;28;20503;-92
2021/03/29 10:23:32;;;;;;;8.40;2.90;;;20.60;74.20;;;;;;5053499;28;20072;-93
2021/03/29 10:26:19;;;;;;;10.93;3.08;;;21.10;72.80;;;;;;5034808;28;20060;-94
2021/03/29 10:29:17;;;;;;;12.20;2.95;;;21.50;72.10;;;;;;5051053;28;20064;-93
2021/03/29 10:34:49;;;;;;;8.32;3.47;;;21.70;69.80;;;;;;5033838;28;20609;-93
2021/03/29 10:37:47;;;;;;;9.05;2.88;;;21.90;68.00;;;;;;5069041;28;20033;-92
2021/03/29 10:40:30;;;;;;;6.10;2.17;;;21.90;69.00;;;;;;5056531;28;20048;-93
2021/03/29 10:42:57;;;;;;;7.28;3.55;;;22.20;69.10;;;;;;5054985;28;20037;-91
2021/03/29 10:46:19;;;;;;;8.82;2.92;;;22.20;66.70;;;;;;5039291;28;20135;-91
2021/03/29 10:48:54;;;;;;;8.88;3.47;;;22.40;66.40;;;;;;4932298;29;20058;-91
2021/03/29 10:51:29;;;;;;;8.07;2.92;;;22.50;65.40;;;;;;4937193;28;20046;-91
2021/03/29 10:54:10;;;;;;;6.22;2.97;;;22.60;66.30;;;;;;5023443;28;20040;-92
2021/03/29 10:59:28;;;;;;;8.55;2.80;;;22.90;66.20;;;;;;4988521;28;20038;-92
2021/03/29 11:02:32;;;;;;;9.80;3.00;;;23.10;65.10;;;;;;5031692;28;20025;-91
2021/03/29 11:05:10;;;;;;;10.70;3.35;;;23.10;63.40;;;;;;5027254;28;20111;-92
2021/03/29 11:07:36;;;;;;;9.07;3.35;;;23.30;63.10;;;;;;5014540;28;20150;-91
2021/03/29 11:10:58;;;;;;;7.57;2.83;;;23.60;64.20;;;;;;5027863;28;20034;-93
2021/03/29 11:16:50;;;;;;;6.38;2.83;;;23.70;62.90;;;;;;4951367;29;20554;-92
2021/03/29 11:19:42;;;;;;;7.38;2.70;;;23.50;60.40;;;;;;5040988;28;20040;-91
2021/03/29 11:22:29;;;;;;;7.63;2.70;;;23.40;60.50;;;;;;5007248;28;20103;-93
2021/03/29 11:25:28;;;;;;;9.00;2.97;;;23.60;62.00;;;;;;5020156;28;20564;-91
2021/03/29 11:28:50;;;;;;;8.27;3.17;;;24.10;61.20;;;;;;5004586;28;20040;-93
2021/03/29 11:31:30;;;;;;;6.95;2.90;;;24.50;60.20;;;;;;4992198;28;20092;-92
2021/03/29 11:34:02;;;;;;;5.88;2.13;;;24.10;58.00;;;;;;5037350;28;20068;-91
2021/03/29 11:37:02;;;;;;;8.68;3.00;;;24.20;60.10;;;;;;5026691;28;20107;-91
2021/03/29 11:39:55;;;;;;;5.88;2.90;;;24.30;53.90;;;;;;4995867;28;20132;-90
2021/03/29 11:42:31;;;;;;;13.93;2.63;;;23.90;55.70;;;;;;5014957;28;20060;-91
2021/03/29 11:45:40;;;;;;;8.02;2.45;;;23.90;57.40;;;;;;5017590;28;20036;-91
2021/03/29 11:48:17;;;;;;;9.48;3.05;;;24.40;58.40;;;;;;4984319;28;20140;-91
2021/03/29 11:51:02;;;;;;;6.13;2.80;;;24.60;52.80;;;;;;5000157;28;20045;-91
2021/03/29 11:54:12;;;;;;;;;;;;;;;;;;;;;
2021/03/29 11:56:58;;;;;;;7.97;2.58;;;24.30;56.00;;;;;;5012727;28;20060;-91
2021/03/29 11:59:41;;;;;;;8.95;2.70;;;24.60;56.40;;;;;;5015096;28;20052;-91
2021/03/29 12:02:12;;;;;;;;;;;25.00;56.10;;;;;;5053870;28;20075;-92
2021/03/29 12:05:32;;;;;;;;;;;;;;;;;;;;;
2021/03/29 12:12:09;;;;;;;4.60;2.17;;;25.10;53.90;;;;;;4970383;28;20511;-92
2021/03/29 12:14:40;;;;;;;8.60;2.80;;;25.50;55.40;;;;;;5036258;28;20029;-91
2021/03/29 12:21:00;;;;;;;8.30;2.80;;;25.80;55.80;;;;;;5032649;28;20076;-92
2021/03/29 12:23:41;;;;;;;5.75;2.22;;;26.20;55.80;;;;;;5049546;28;20033;-93
2021/03/29 12:32:34;;;;;;;;;;;;;;;;;;;;;
2021/03/29 12:35:01;;;;;;;5.20;1.95;;;26.70;51.70;;;;;;5051342;28;20029;-91
2021/03/29 12:37:33;;;;;;;8.30;2.80;;;26.70;51.70;;;;;;5032997;28;20075;-91
2021/03/29 12:40:27;;;;;;;9.93;2.45;;;27.10;49.70;;;;;;5030152;28;20047;-91
2021/03/29 12:43:08;;;;;;;8.82;2.63;;;27.20;50.50;;;;;;5050365;28;20032;-91
2021/03/29 12:46:30;;;;;;;6.05;2.20;;;27.30;50.30;;;;;;5047690;28;20040;-91
2021/03/29 12:49:09;;;;;;;;;;;;;;;;;;;;;
2021/03/29 12:51:51;;;;;;;;;;;;;;;;;;;;;
2021/03/29 12:54:25;;;;;;;11.57;2.95;;;27.60;50.90;;;;;;5048304;28;20027;-91
2021/03/29 13:01:31;;;;;;;8.43;2.90;;;27.50;49.00;;;;;;4946954;28;20162;-92
2021/03/29 13:04:34;;;;;;;5.82;2.58;;;27.10;48.80;;;;;;4941805;28;20026;-92
2021/03/29 13:13:54;;;;;;;7.45;3.00;;;26.80;48.80;;;;;;5066548;28;20095;-91
2021/03/29 13:16:56;;;;;;;8.35;2.70;;;26.70;48.50;;;;;;5025387;28;20037;-91
2021/03/29 13:19:44;;;;;;;6.40;2.08;;;26.60;50.40;;;;;;4954616;28;20144;-89
2021/03/29 13:22:16;;;;;;;4.05;2.03;;;26.70;51.80;;;;;;5026781;28;20037;-90
2021/03/29 13:25:12;;;;;;;;;;;;;;;;;;;;;
2021/03/29 13:28:03;;;;;;;7.88;3.08;;;26.70;48.50;;;;;;5052124;28;20063;-91
2021/03/29 13:31:02;;;;;;;6.03;2.35;;;26.40;50.10;;;;;;5042312;28;20045;-91
2021/03/29 13:36:50;;;;;;;6.13;2.53;;;26.80;51.20;;;;;;5049734;28;20138;-90
2021/03/29 13:40:00;;;;;;;;;;;;;;;;;;;;;
2021/03/29 13:42:46;;;;;;;7.63;2.53;;;27.10;51.80;;;;;;5040698;28;20041;-90
2021/03/29 13:45:16;;;;;;;6.82;2.60;;;27.00;48.90;;;;;;5059062;28;20582;-91
2021/03/29 13:47:44;;;;;;;5.85;2.60;;;26.80;49.70;;;;;;5020701;28;20072;-90
2021/03/29 13:50:35;;;;;;;6.72;2.97;;;26.80;50.60;;;;;;5055706;28;20047;-91
2021/03/29 13:53:02;;;;;;;7.78;2.67;;;26.80;50.20;;;;;;5012635;28;20137;-89
2021/03/29 13:55:34;;;;;;;5.40;1.90;;;26.50;48.70;;;;;;5032092;28;20041;-89
2021/03/29 13:58:04;;;;;;;5.35;2.63;;;26.50;50.70;;;;;;5057256;28;20053;-90
2021/03/29 14:00:43;;;;;;;4.75;1.88;;;26.70;48.60;;;;;;5036894;28;20044;-89
2021/03/29 14:03:36;;;;;;;;;;;;;;;;;;;;;
2021/03/29 14:06:25;;;;;;;4.45;2.30;;;26.80;48.90;;;;;;5049425;28;20028;-90
2021/03/29 14:09:06;;;;;;;;;;;;;;;;;;;;;
2021/03/29 14:12:23;;;;;;;6.55;2.30;;;26.50;50.80;;;;;;5062595;28;20032;-90
2021/03/29 14:17:52;;;;;;;5.80;2.88;;;26.00;49.90;;;;;;5030977;28;20036;-89
2021/03/29 14:23:33;;;;;;;;;;;26.10;53.00;;;;;;5036718;28;20075;-90
2021/03/29 14:26:04;;;;;;;7.35;2.40;;;26.10;52.50;;;;;;5035282;28;19999;-87
2021/03/29 14:29:00;;;;;;;6.32;2.45;;;26.50;52.50;;;;;;5036867;28;20501;-88
2021/03/29 14:31:34;;;;;;;7.20;2.60;;;26.90;51.50;;;;;;5036730;28;20036;-89
2021/03/29 14:34:47;;;;;;;6.97;2.50;;;27.30;49.60;;;;;;5032740;28;20045;-89
2021/03/29 14:46:49;;;;;;;6.75;2.67;;;26.60;48.20;;;;;;5035594;28;20040;-89
2021/03/29 14:49:23;;;;;;;6.07;2.33;;;26.30;48.70;;;;;;5045587;28;20051;-88
2021/03/29 14:51:58;;;;;;;6.38;2.10;;;25.80;47.50;;;;;;5030550;28;20041;-88
2021/03/29 14:54:52;;;;;;;6.55;2.58;;;25.30;50.00;;;;;;5044869;28;20569;-88
2021/03/29 14:57:18;;;;;;;6.32;2.67;;;24.80;49.60;;;;;;5030577;28;20059;-89
2021/03/29 15:00:37;;;;;;;6.78;2.75;;;24.80;50.30;;;;;;5014748;28;20040;-89
2021/03/29 15:03:49;;;;;;;5.72;2.63;;;24.80;50.20;;;;;;4970680;28;20047;-88
2021/03/29 15:06:40;;;;;;;7.18;3.08;;;24.70;50.80;;;;;;5047868;28;20071;-88
2021/03/29 15:09:04;;;;;;;6.47;2.22;;;24.70;48.90;;;;;;5058760;28;20481;-87
2021/03/29 15:11:45;;;;;;;5.68;2.90;;;24.60;53.40;;;;;;5018588;28;20496;-89
2021/03/29 15:14:15;;;;;;;6.80;2.58;;;24.80;51.60;;;;;;5052097;28;20052;-87
2021/03/29 15:16:44;;;;;;;4.90;2.17;;;24.80;53.60;;;;;;5033580;28;20393;-86
2021/03/29 15:19:12;;;;;;;5.55;2.20;;;24.60;53.90;;;;;;5023723;28;20770;-87
2021/03/29 15:21:39;;;;;;;8.85;2.67;;;24.10;50.70;;;;;;5040364;28;20045;-88
2021/03/29 15:24:08;;;;;;;6.47;2.58;;;23.60;53.70;;;;;;5019525;28;20040;-87
2021/03/29 15:26:39;;;;;;;8.48;2.90;;;23.20;54.90;;;;;;5040143;28;20029;-87
2021/03/29 15:29:10;;;;;;;7.38;2.90;;;22.90;54.60;;;;;;5019600;28;20075;-87
2021/03/29 15:31:36;;;;;;;7.50;3.42;;;22.50;53.80;;;;;;5035104;28;20542;-87
2021/03/29 15:34:18;;;;;;;8.65;3.30;;;22.20;54.30;;;;;;5061135;28;20472;-88
2021/03/29 15:36:49;;;;;;;8.65;3.03;;;21.90;54.90;;;;;;5039815;28;20028;-87
2021/03/29 15:39:25;;;;;;;7.10;2.83;;;21.80;56.90;;;;;;5035068;28;20489;-87
2021/03/29 15:41:58;;;;;;;7.47;3.10;;;21.70;58.20;;;;;;5037894;28;20036;-88
2021/03/29 15:44:33;;;;;;;8.23;3.03;;;21.60;58.70;;;;;;5034588;28;20270;-87
2021/03/29 15:47:28;;;;;;;5.43;2.70;;;21.60;58.80;;;;;;5039147;28;20048;-88
2021/03/29 15:49:54;;;;;;;6.18;2.95;;;21.50;59.00;;;;;;5038031;28;20040;-87
2021/03/29 15:52:24;;;;;;;4.72;2.60;;;21.50;60.80;;;;;;5036914;28;20485;-87
2021/03/29 15:55:15;;;;;;;5.32;3.17;;;21.50;60.80;;;;;;5016929;28;20037;-88
2021/03/29 15:57:46;;;;;;;5.32;2.78;;;21.40;59.30;;;;;;5032035;28;20057;-88
2021/03/29 16:00:34;;;;;;;5.25;2.80;;;21.30;60.60;;;;;;5028881;28;20057;-88
2021/03/29 16:03:07;;;;;;;6.18;2.92;;;21.30;61.50;;;;;;5015617;28;20025;-88
2021/03/29 16:05:39;;;;;;;5.78;2.45;;;21.20;61.30;;;;;;5018213;28;20040;-88
2021/03/29 16:08:25;;;;;;;6.78;3.17;;;21.20;61.70;;;;;;5024541;28;20040;-88
2021/03/29 16:11:12;;;;;;;6.90;3.03;;;21.20;62.90;;;;;;5006276;28;20040;-88
2021/03/29 16:16:41;;;;;;;5.20;2.97;;;21.00;60.10;;;;;;4927575;29;20090;-88
2021/03/29 16:19:10;;;;;;;6.60;2.70;;;20.90;60.50;;;;;;4960391;28;20313;-87
2021/03/29 16:21:39;;;;;;;4.82;2.25;;;20.80;62.10;;;;;;4930860;29;20058;-89
2021/03/29 16:24:08;;;;;;;5.05;2.40;;;20.80;62.10;;;;;;4936285;29;20064;-88
2021/03/29 16:26:36;;;;;;;6.18;3.13;;;20.70;62.50;;;;;;4943169;28;20026;-89
2021/03/29 16:29:05;;;;;;;6.05;3.15;;;20.60;60.40;;;;;;4938736;28;20440;-88
2021/03/29 16:31:37;;;;;;;8.27;3.20;;;20.50;60.50;;;;;;5001733;28;20036;-88
2021/03/29 16:34:08;;;;;;;8.52;3.47;;;20.50;60.00;;;;;;5017322;28;20029;-87
2021/03/29 16:36:38;;;;;;;7.53;3.22;;;20.40;59.60;;;;;;5022872;28;20538;-88